Time;durP1;ratioP1;P1;durP2;ratioP2;P2;SDS_P1;SDS_P2;PMS_P1;PMS_P2;Temp;Humidity;BMP_temperature;BMP_pressure;BME280_temperature;BME280_humidity;BME280_pressure;Samples;Min_cycle;Max_cycle;Signal;HPM_P1;HPM_P2
2022/09/08 00:01:44;;;;;;;;;0.00;0.00;;;;;18.99;65.90;100525.22;4997070;28;45468;-67
2022/09/08 00:04:10;;;;;;;;;1.33;1.33;;;;;19.03;65.96;100534.81;4995743;28;45431;-68
2022/09/08 00:06:36;;;;;;;;;3.33;1.00;;;;;18.78;66.61;100523.34;4996694;28;46116;-68
2022/09/08 00:09:03;;;;;;;;;2.33;1.00;;;;;18.81;66.61;100517.91;4996842;28;45625;-69
2022/09/08 00:11:32;;;;;;;;;2.00;1.00;;;;;18.78;66.84;100528.66;4995263;28;45694;-68
2022/09/08 00:14:02;;;;;;;;;1.00;0.00;;;;;18.71;67.17;100527.09;4995795;28;46092;-68
2022/09/08 00:16:27;;;;;;;;;1.00;1.00;;;;;18.76;67.04;100534.00;4998284;28;46131;-68
2022/09/08 00:18:53;;;;;;;;;0.00;0.00;;;;;18.70;66.92;100528.00;4997677;28;45885;-68
2022/09/08 00:21:23;;;;;;;;;3.33;0.67;;;;;18.72;67.04;100531.47;4997147;28;45525;-69
2022/09/08 00:23:49;;;;;;;;;0.00;0.00;;;;;18.76;66.83;100538.41;4997186;28;45400;-69
2022/09/08 00:26:16;;;;;;;;;1.00;1.00;;;;;18.83;66.99;100542.63;4996026;28;45546;-68
2022/09/08 00:28:42;;;;;;;;;1.00;1.00;;;;;18.81;67.03;100557.72;4995140;28;45758;-68
2022/09/08 00:31:08;;;;;;;;;1.33;1.00;;;;;18.75;67.31;100544.66;4995613;28;45440;-68
2022/09/08 00:33:33;;;;;;;;;1.00;0.00;;;;;18.71;67.20;100524.44;4996870;28;45396;-69
2022/09/08 00:35:59;;;;;;;;;1.00;1.00;;;;;18.84;66.83;100525.78;4996196;28;45459;-67
2022/09/08 00:38:26;;;;;;;;;1.00;1.00;;;;;18.77;67.22;100524.25;4994406;28;45595;-68
2022/09/08 00:40:52;;;;;;;;;2.00;0.00;;;;;18.73;67.33;100535.88;4994870;28;45459;-69
2022/09/08 00:43:38;;;;;;;;;0.67;0.67;;;;;18.63;67.62;100532.69;4996501;28;45505;-69
2022/09/08 00:46:19;;;;;;;;;3.00;0.33;;;;;18.63;67.29;100536.19;4996407;28;46427;-70
2022/09/08 00:49:16;;;;;;;;;1.00;1.00;;;;;18.55;67.14;100524.97;4996654;28;45399;-69
2022/09/08 00:51:47;;;;;;;;;1.67;1.33;;;;;18.52;67.43;100524.22;4990767;28;45500;-69
2022/09/08 00:54:15;;;;;;;;;1.00;1.00;;;;;18.33;67.70;100516.88;4996496;28;45612;-69
2022/09/08 00:56:43;;;;;;;;;1.00;1.00;;;;;18.32;67.81;100527.53;4997623;28;46145;-69
2022/09/08 00:59:10;;;;;;;;;1.00;1.00;;;;;18.23;68.88;100526.94;4994935;28;45524;-70
2022/09/08 01:01:36;;;;;;;;;1.00;1.00;;;;;18.13;68.83;100537.91;4995885;28;45445;-67
2022/09/08 01:04:04;;;;;;;;;1.00;1.00;;;;;18.11;69.21;100540.59;4998513;28;45367;-69
2022/09/08 01:15:09;;;;;;;;;2.33;1.00;;;;;18.05;69.49;100537.25;4996955;28;45430;-70
2022/09/08 01:17:35;;;;;;;;;1.00;1.00;;;;;18.09;69.25;100541.56;4995599;28;45605;-70
2022/09/08 01:20:03;;;;;;;;;3.00;1.00;;;;;18.04;69.31;100538.19;4995408;28;45438;-69
2022/09/08 01:22:56;;;;;;;;;3.00;1.00;;;;;17.92;69.41;100537.66;4994349;28;45292;-68
2022/09/08 01:25:30;;;;;;;;;1.00;1.00;;;;;17.92;69.68;100542.09;4996165;28;45684;-69
2022/09/08 01:28:12;;;;;;;;;5.00;1.00;;;;;17.90;69.64;100538.63;4993831;28;45558;-69
2022/09/08 01:30:38;;;;;;;;;1.00;1.00;;;;;17.88;69.51;100533.34;4998764;28;46042;-69
2022/09/08 01:33:06;;;;;;;;;1.67;1.67;;;;;17.95;69.31;100553.44;4998243;28;45414;-69
2022/09/08 01:35:38;;;;;;;;;1.00;1.00;;;;;17.89;69.56;100545.72;5013042;28;45323;-69
2022/09/08 01:38:05;;;;;;;;;1.00;1.00;;;;;17.91;69.19;100546.50;5017944;28;45389;-69
2022/09/08 01:40:31;;;;;;;;;0.33;0.33;;;;;17.98;68.95;100549.81;5015830;28;45315;-69
2022/09/08 01:42:57;;;;;;;;;0.67;0.67;;;;;17.96;69.62;100556.97;5015350;28;45465;-68
2022/09/08 01:45:23;;;;;;;;;4.00;0.00;;;;;17.90;69.40;100549.22;5015484;28;45459;-69
2022/09/08 01:47:50;;;;;;;;;3.33;1.67;;;;;17.91;69.59;100561.53;5014771;28;46530;-69
2022/09/08 01:50:17;;;;;;;;;1.33;1.00;;;;;17.95;69.92;100565.84;5013517;28;45783;-69
2022/09/08 01:52:43;;;;;;;;;2.00;0.33;;;;;17.99;69.36;100567.47;5013404;28;45872;-69
2022/09/08 01:55:08;;;;;;;;;2.00;0.67;;;;;18.08;68.93;100567.19;5015548;28;45667;-69
2022/09/08 01:57:34;;;;;;;;;1.00;0.67;;;;;18.15;68.63;100566.09;5015478;28;46132;-68
2022/09/08 02:00:00;;;;;;;;;1.00;1.00;;;;;18.23;68.69;100563.19;5015195;28;45399;-69
2022/09/08 02:02:25;;;;;;;;;1.67;1.00;;;;;18.13;68.96;100570.56;5016851;28;45286;-69
2022/09/08 02:04:52;;;;;;;;;1.00;1.00;;;;;18.07;69.21;100577.84;5016520;28;45577;-70
2022/09/08 02:07:17;;;;;;;;;1.00;1.00;;;;;17.92;69.56;100560.63;5014779;28;45316;-69
2022/09/08 02:09:45;;;;;;;;;1.00;1.00;;;;;17.88;70.09;100565.16;5014412;28;45573;-69
2022/09/08 02:12:10;;;;;;;;;2.00;1.00;;;;;17.96;69.46;100567.56;5013420;28;45702;-69
2022/09/08 02:14:36;;;;;;;;;0.00;0.00;;;;;17.87;70.12;100581.09;5014670;28;45471;-69
2022/09/08 02:17:02;;;;;;;;;1.33;1.00;;;;;17.81;70.56;100576.84;5014823;28;45533;-69
2022/09/08 02:19:28;;;;;;;;;2.00;1.67;;;;;17.76;70.39;100565.50;5014594;28;45842;-68
2022/09/08 02:21:53;;;;;;;;;1.00;1.00;;;;;17.81;70.29;100566.25;5017320;28;45395;-69
2022/09/08 02:24:19;;;;;;;;;1.00;1.00;;;;;17.88;70.04;100575.75;5002389;28;46855;-68
2022/09/08 22:55:01;;;;;;;;;1.00;1.00;;;;;18.07;67.28;100560.13;5087868;27;45415;-73
2022/09/08 22:57:35;;;;;;;;;2.00;2.00;;;;;18.23;66.54;100556.09;5072504;27;45380;-71
2022/09/08 23:00:16;;;;;;;;;3.00;1.67;;;;;18.34;65.35;100554.84;5066609;27;46016;-70
2022/09/08 23:02:55;;;;;;;;;3.00;1.00;;;;;18.49;64.53;100556.16;5068314;27;45560;-72
2022/09/08 23:05:26;;;;;;;;;4.33;1.00;;;;;18.64;64.52;100561.78;5068586;27;45335;-72
2022/09/08 23:07:51;;;;;;;;;1.00;1.00;;;;;18.63;63.86;100546.81;5067872;27;45620;-71
2022/09/08 23:10:21;;;;;;;;;1.00;1.00;;;;;18.79;63.41;100559.56;5059061;27;45590;-72
2022/09/08 23:13:17;;;;;;;;;1.67;1.33;;;;;18.89;63.12;100566.28;5067953;27;45568;-72
2022/09/08 23:16:11;;;;;;;;;2.00;2.00;;;;;18.92;62.37;100546.75;5066054;28;45506;-72
2022/09/08 23:19:15;;;;;;;;;2.33;1.00;;;;;18.97;61.54;100561.56;5068324;27;45386;-73
2022/09/08 23:21:53;;;;;;;;;2.00;1.00;;;;;19.06;61.78;100563.03;5059262;28;45503;-73
2022/09/08 23:24:37;;;;;;;;;0.67;0.67;;;;;19.11;61.25;100565.53;5066813;28;45409;-72
2022/09/08 23:27:05;;;;;;;;;3.67;1.00;;;;;19.15;60.82;100559.16;5058035;27;47866;-74
2022/09/08 23:29:39;;;;;;;;;1.67;1.67;;;;;19.17;61.03;100563.53;5059450;27;45567;-73
2022/09/08 23:32:22;;;;;;;;;2.00;2.00;;;;;19.10;60.61;100545.19;5066502;27;45480;-73
2022/09/08 23:35:07;;;;;;;;;2.33;1.00;;;;;19.15;60.18;100557.41;5052734;28;45600;-73
2022/09/08 23:37:40;;;;;;;;;3.00;1.00;;;;;19.01;60.72;100543.75;5053729;28;45712;-72
2022/09/08 23:40:27;;;;;;;;;1.00;1.00;;;;;19.13;60.38;100555.72;5054041;28;45459;-72
2022/09/08 23:42:55;;;;;;;;;2.00;1.00;;;;;19.20;60.26;100566.06;5056187;28;45795;-71
2022/09/08 23:45:32;;;;;;;;;1.00;1.00;;;;;19.20;59.84;100554.59;5070015;28;45374;-73
2022/09/08 23:48:01;;;;;;;;;3.67;1.00;;;;;19.10;60.43;100554.06;5061481;28;45870;-71
2022/09/08 23:50:28;;;;;;;;;4.00;1.00;;;;;19.09;59.75;100548.78;5061951;28;45432;-71
2022/09/08 23:53:01;;;;;;;;;0.00;0.00;;;;;19.12;59.62;100552.19;5075395;27;45295;-70
2022/09/08 23:55:32;;;;;;;;;1.00;1.00;;;;;19.13;59.50;100542.47;5089611;27;45711;-71
2022/09/08 23:57:58;;;;;;;;;2.00;2.00;;;;;18.79;59.52;100490.56;5071235;27;46346;-72
